Time;durP1;ratioP1;P1;durP2;ratioP2;P2;SDS_P1;SDS_P2;PMS_P1;PMS_P2;Temp;Humidity;BMP_temperature;BMP_pressure;BME280_temperature;BME280_humidity;BME280_pressure;Samples;Min_cycle;Max_cycle;Signal;HPM_P1;HPM_P2
2023/04/19 00:01:31;;;;;;;6.35;2.35;;;8.70;99.90;;;;;;4996457;28;20049;-83
2023/04/19 00:03:57;;;;;;;7.45;2.70;;;8.70;99.90;;;;;;5014774;28;20113;-82
2023/04/19 00:06:23;;;;;;;9.07;2.65;;;8.70;99.90;;;;;;4999021;28;20046;-82
2023/04/19 00:08:49;;;;;;;4.85;2.42;;;8.70;99.90;;;;;;4999229;28;20120;-82
2023/04/19 00:11:15;;;;;;;6.70;2.58;;;8.70;99.90;;;;;;5005881;28;20752;-82
2023/04/19 00:13:40;;;;;;;5.18;2.80;;;8.70;99.90;;;;;;4996532;28;20161;-83
2023/04/19 00:16:06;;;;;;;5.95;2.38;;;8.70;99.90;;;;;;4997839;28;20042;-82
2023/04/19 00:18:32;;;;;;;7.03;2.55;;;8.60;99.90;;;;;;5030379;28;20593;-83
2023/04/19 00:20:58;;;;;;;7.07;2.60;;;8.60;99.90;;;;;;4998699;28;20771;-82
2023/04/19 00:23:24;;;;;;;6.25;2.60;;;8.60;99.90;;;;;;5001566;28;20480;-82
2023/04/19 00:25:50;;;;;;;5.55;2.53;;;8.60;99.90;;;;;;5004334;28;20045;-82
2023/04/19 00:28:15;;;;;;;5.43;2.38;;;8.70;99.90;;;;;;5000923;28;20049;-82
2023/04/19 00:30:41;;;;;;;5.90;2.65;;;8.50;99.90;;;;;;4997837;28;20040;-82
2023/04/19 00:33:11;;;;;;;8.07;2.28;;;8.50;99.90;;;;;;5001425;28;20600;-83
2023/04/19 00:35:43;;;;;;;6.05;2.42;;;8.50;99.90;;;;;;5004634;28;20120;-83
2023/04/19 00:38:09;;;;;;;4.60;2.10;;;8.50;99.90;;;;;;4999926;28;20045;-83
2023/04/19 00:40:36;;;;;;;5.65;2.38;;;8.50;99.90;;;;;;4996965;28;20030;-82
2023/04/19 00:43:01;;;;;;;7.10;2.17;;;8.40;99.90;;;;;;4999298;28;20049;-82
2023/04/19 00:45:27;;;;;;;7.47;2.60;;;8.40;99.90;;;;;;5002517;28;20041;-82
2023/04/19 00:47:53;;;;;;;6.05;2.40;;;8.40;99.90;;;;;;4997963;28;20038;-83
2023/04/19 00:50:19;;;;;;;7.55;2.35;;;8.40;99.90;;;;;;5000920;28;20135;-82
2023/04/19 00:52:45;;;;;;;5.13;2.47;;;8.40;99.90;;;;;;5004204;28;20030;-82
2023/04/19 00:55:11;;;;;;;7.28;2.50;;;8.40;99.90;;;;;;5005363;28;20098;-82
2023/04/19 00:57:37;;;;;;;8.70;2.70;;;8.30;99.90;;;;;;5000765;28;20041;-82
2023/04/19 01:00:05;;;;;;;5.40;2.35;;;8.30;99.90;;;;;;4999123;28;20026;-82
2023/04/19 01:02:31;;;;;;;3.80;2.25;;;8.30;99.90;;;;;;5000089;28;20078;-82
2023/04/19 01:04:57;;;;;;;6.25;3.10;;;8.30;99.90;;;;;;5005578;28;20435;-82
2023/04/19 01:07:22;;;;;;;6.55;2.72;;;8.30;99.90;;;;;;5002887;28;20041;-82
2023/04/19 01:09:48;;;;;;;6.47;2.67;;;8.30;99.90;;;;;;5007857;28;20133;-82
2023/04/19 01:12:14;;;;;;;9.00;2.60;;;8.30;99.90;;;;;;4998143;28;20129;-82
2023/04/19 01:14:40;;;;;;;5.88;3.25;;;8.30;99.90;;;;;;5005129;28;20038;-82
2023/04/19 01:17:06;;;;;;;6.70;2.70;;;8.20;99.90;;;;;;5000902;28;20046;-82
2023/04/19 01:19:33;;;;;;;7.10;2.70;;;8.20;99.90;;;;;;5033218;28;20080;-82
2023/04/19 01:21:59;;;;;;;4.75;2.50;;;8.20;99.90;;;;;;5005945;28;20056;-82
2023/04/19 01:24:25;;;;;;;5.05;2.40;;;8.20;99.90;;;;;;5029068;28;20419;-82
2023/04/19 01:26:50;;;;;;;5.63;2.55;;;8.20;99.90;;;;;;5006170;28;20562;-82
2023/04/19 01:29:17;;;;;;;4.88;2.08;;;8.20;99.90;;;;;;5007365;28;20038;-82
2023/04/19 01:31:47;;;;;;;5.30;2.35;;;8.20;99.90;;;;;;5006117;28;20049;-82
2023/04/19 01:34:13;;;;;;;7.40;2.60;;;8.20;99.90;;;;;;5003155;28;20061;-82
2023/04/19 01:36:39;;;;;;;4.82;2.20;;;8.20;99.90;;;;;;5002828;28;20038;-82
2023/04/19 01:39:04;;;;;;;3.75;2.20;;;8.10;99.90;;;;;;5034650;28;20746;-82
2023/04/19 01:41:31;;;;;;;6.15;2.13;;;8.10;99.90;;;;;;5005385;28;20124;-82
2023/04/19 01:43:56;;;;;;;5.05;2.30;;;8.10;99.90;;;;;;4999990;28;20037;-82
2023/04/19 01:46:22;;;;;;;5.93;2.38;;;8.10;99.90;;;;;;5000905;28;20511;-82
2023/04/19 01:48:48;;;;;;;8.68;2.40;;;8.10;99.90;;;;;;5001941;28;20049;-82
2023/04/19 01:51:13;;;;;;;5.68;2.10;;;8.10;99.90;;;;;;5032429;28;20039;-83
2023/04/19 01:53:39;;;;;;;8.77;3.13;;;8.00;99.90;;;;;;4995892;28;20108;-82
2023/04/19 01:56:05;;;;;;;5.75;2.28;;;8.00;99.90;;;;;;5039817;28;20069;-82
2023/04/19 01:58:30;;;;;;;8.32;2.70;;;7.90;99.90;;;;;;4999372;28;20030;-82
2023/04/19 02:00:56;;;;;;;7.32;2.83;;;7.90;99.90;;;;;;5001468;28;20038;-82
2023/04/19 02:03:21;;;;;;;6.57;2.50;;;7.90;99.90;;;;;;5003947;28;20041;-82
2023/04/19 02:05:47;;;;;;;9.10;3.25;;;7.90;99.90;;;;;;5006755;28;20395;-82
2023/04/19 02:08:13;;;;;;;5.75;2.60;;;7.90;99.90;;;;;;5003115;28;20038;-82
2023/04/19 02:10:38;;;;;;;8.05;3.00;;;7.80;99.90;;;;;;5002846;28;20045;-82
2023/04/19 02:13:04;;;;;;;7.15;3.05;;;7.80;99.90;;;;;;5000637;28;20092;-82
2023/04/19 02:15:30;;;;;;;7.07;3.63;;;7.70;99.90;;;;;;5000300;28;20116;-83
2023/04/19 02:17:55;;;;;;;7.40;2.78;;;7.70;99.90;;;;;;5004305;28;20092;-82
2023/04/19 02:20:22;;;;;;;6.35;2.90;;;7.70;99.90;;;;;;4995871;28;20030;-82
2023/04/19 02:22:48;;;;;;;6.47;2.65;;;7.70;99.90;;;;;;4998654;28;20046;-82
2023/04/19 02:25:15;;;;;;;7.47;3.15;;;7.70;99.90;;;;;;4997681;28;20042;-82
2023/04/19 02:27:41;;;;;;;8.30;3.05;;;7.60;99.90;;;;;;5005958;28;20046;-82
2023/04/19 02:30:07;;;;;;;7.15;2.78;;;7.60;99.90;;;;;;5001841;28;20139;-82
2023/04/19 02:32:32;;;;;;;9.15;2.70;;;7.60;99.90;;;;;;5029643;28;20122;-82
2023/04/19 02:34:58;;;;;;;7.53;3.90;;;7.60;99.90;;;;;;5000116;28;20050;-82
2023/04/19 02:37:24;;;;;;;4.50;2.22;;;7.60;99.90;;;;;;5000062;28;20038;-82
2023/04/19 02:39:49;;;;;;;6.07;2.75;;;7.50;99.90;;;;;;5002979;28;20038;-82
2023/04/19 02:42:15;;;;;;;8.63;3.30;;;7.50;99.90;;;;;;5021895;28;20037;-82
2023/04/19 02:44:40;;;;;;;7.97;3.13;;;7.50;99.90;;;;;;5002527;28;20045;-82
2023/04/19 02:47:06;;;;;;;10.18;3.47;;;7.50;99.90;;;;;;5005775;28;20038;-82
2023/04/19 02:49:35;;;;;;;6.75;2.60;;;7.50;99.90;;;;;;5013026;28;20049;-82
2023/04/19 02:52:01;;;;;;;6.22;2.80;;;7.50;99.90;;;;;;5002412;28;20045;-82
2023/04/19 02:54:26;;;;;;;6.40;3.10;;;7.50;99.90;;;;;;5020238;28;20038;-82
2023/04/19 02:56:52;;;;;;;5.63;2.70;;;7.40;99.90;;;;;;5005042;28;20041;-82
2023/04/19 02:59:17;;;;;;;7.60;3.20;;;7.40;99.90;;;;;;5007544;28;20030;-82
2023/04/19 03:01:43;;;;;;;7.20;2.95;;;7.30;99.90;;;;;;5003755;28;20073;-82
2023/04/19 03:04:08;;;;;;;6.93;2.80;;;7.30;99.90;;;;;;5002604;28;20411;-82
2023/04/19 03:06:35;;;;;;;6.18;2.97;;;7.30;99.90;;;;;;5003512;28;20038;-82
2023/04/19 03:09:00;;;;;;;6.82;2.90;;;7.30;99.90;;;;;;5011377;28;20125;-83
2023/04/19 03:11:26;;;;;;;5.35;2.83;;;7.30;99.90;;;;;;5009003;28;20047;-82
2023/04/19 03:13:52;;;;;;;5.63;2.42;;;7.30;99.90;;;;;;5007324;28;21812;-82
2023/04/19 03:16:17;;;;;;;8.10;3.10;;;7.30;99.90;;;;;;5009455;28;20508;-82
2023/04/19 03:18:43;;;;;;;7.78;3.20;;;7.30;99.90;;;;;;5033844;28;20052;-82
2023/04/19 03:21:09;;;;;;;7.95;3.08;;;7.20;99.90;;;;;;5002254;28;20084;-82
2023/04/19 03:23:34;;;;;;;7.47;2.80;;;7.20;99.90;;;;;;5033731;28;20095;-82
2023/04/19 03:26:00;;;;;;;7.57;3.05;;;7.20;99.90;;;;;;5036380;28;20133;-82
2023/04/19 03:28:26;;;;;;;7.60;2.75;;;7.20;99.90;;;;;;5035235;28;20049;-82
2023/04/19 03:30:51;;;;;;;4.85;2.70;;;7.20;99.90;;;;;;5005713;28;20045;-82
2023/04/19 03:33:17;;;;;;;6.30;2.70;;;7.20;99.90;;;;;;5009336;28;20034;-82
2023/04/19 03:35:43;;;;;;;4.68;2.20;;;7.10;99.90;;;;;;5005730;28;21087;-82
2023/04/19 03:38:09;;;;;;;6.63;2.38;;;7.20;99.90;;;;;;5018203;28;20048;-82
2023/04/19 03:40:36;;;;;;;5.88;2.97;;;7.10;99.90;;;;;;5007747;28;20404;-82
2023/04/19 03:43:02;;;;;;;5.63;2.67;;;7.10;99.90;;;;;;5005339;28;20041;-82
2023/04/19 03:45:28;;;;;;;7.53;2.63;;;7.10;99.90;;;;;;5008796;28;20483;-82
2023/04/19 03:47:54;;;;;;;5.30;2.47;;;7.10;99.90;;;;;;5004672;28;20100;-82
2023/04/19 03:50:19;;;;;;;5.57;2.63;;;7.10;99.90;;;;;;5004642;28;20042;-82
2023/04/19 03:52:45;;;;;;;6.65;2.70;;;7.10;99.90;;;;;;5008088;28;20087;-82
2023/04/19 03:55:14;;;;;;;4.53;2.35;;;7.00;99.90;;;;;;5007142;28;20041;-82
2023/04/19 03:57:39;;;;;;;5.80;2.20;;;7.00;99.90;;;;;;5004272;28;20038;-82
2023/04/19 04:00:09;;;;;;;7.45;2.67;;;7.00;99.90;;;;;;5042079;28;20092;-82
2023/04/19 04:02:38;;;;;;;7.90;2.55;;;7.00;99.90;;;;;;5007185;28;20045;-82
2023/04/19 04:05:05;;;;;;;4.22;1.90;;;7.00;99.90;;;;;;5009887;28;20042;-82
2023/04/19 04:07:31;;;;;;;3.83;1.80;;;6.90;99.90;;;;;;5034032;28;20049;-82
2023/04/19 04:09:56;;;;;;;5.85;2.63;;;6.90;99.90;;;;;;5008357;28;20104;-82
2023/04/19 04:12:22;;;;;;;5.93;2.55;;;6.90;99.90;;;;;;5009114;28;20100;-82
2023/04/19 04:14:47;;;;;;;6.68;2.13;;;6.90;99.90;;;;;;5007639;28;20034;-82
2023/04/19 04:17:13;;;;;;;4.80;2.03;;;6.80;99.90;;;;;;5001935;28;20042;-82
2023/04/19 04:19:39;;;;;;;4.82;1.90;;;6.80;99.90;;;;;;5008515;28;20540;-82
2023/04/19 04:22:05;;;;;;;8.35;2.90;;;6.80;99.90;;;;;;5005726;28;20411;-82
2023/04/19 04:24:37;;;;;;;5.72;2.20;;;6.80;99.90;;;;;;5009308;28;20042;-82
2023/04/19 04:27:02;;;;;;;5.32;2.38;;;6.80;99.90;;;;;;5007278;28;20042;-82
2023/04/19 04:29:28;;;;;;;4.50;2.17;;;6.70;99.90;;;;;;5006239;28;20494;-82
2023/04/19 04:31:55;;;;;;;5.18;2.47;;;6.70;99.90;;;;;;5008757;28;20080;-82
2023/04/19 04:34:21;;;;;;;6.80;3.20;;;6.60;99.90;;;;;;5032924;28;20057;-82
2023/04/19 04:36:49;;;;;;;5.88;2.33;;;6.60;99.90;;;;;;5002770;28;20117;-82
2023/04/19 04:39:15;;;;;;;5.55;2.83;;;6.60;99.90;;;;;;5006618;28;20034;-82
2023/04/19 04:41:41;;;;;;;5.40;1.88;;;6.60;99.90;;;;;;5007879;28;20547;-82
2023/04/19 04:44:07;;;;;;;4.43;2.33;;;6.50;99.90;;;;;;5003419;28;20038;-82
2023/04/19 04:46:33;;;;;;;5.38;2.78;;;6.50;99.90;;;;;;5005655;28;20049;-82
2023/04/19 04:48:59;;;;;;;4.00;2.17;;;6.50;99.90;;;;;;5001199;28;20450;-82
2023/04/19 04:51:26;;;;;;;5.05;2.05;;;6.50;99.90;;;;;;5004584;28;20041;-82
2023/04/19 04:53:51;;;;;;;7.13;2.03;;;6.50;99.90;;;;;;5009272;28;20066;-82
2023/04/19 04:56:17;;;;;;;4.93;2.35;;;6.60;99.90;;;;;;5003842;28;20075;-82
2023/04/19 04:58:43;;;;;;;3.38;1.77;;;6.50;99.90;;;;;;5017058;28;20049;-82
2023/04/19 05:01:08;;;;;;;3.67;1.60;;;6.50;99.90;;;;;;5006142;28;20030;-82
2023/04/19 05:03:34;;;;;;;5.90;1.90;;;6.50;99.90;;;;;;5008047;28;20064;-82
2023/04/19 05:05:59;;;;;;;4.15;1.90;;;6.50;99.90;;;;;;5003967;28;20041;-82
2023/04/19 05:08:25;;;;;;;3.97;2.35;;;6.50;99.90;;;;;;5003479;28;20046;-82
2023/04/19 05:10:51;;;;;;;7.05;1.50;;;6.50;99.90;;;;;;5007254;28;20041;-82
2023/04/19 05:13:17;;;;;;;4.53;1.60;;;6.50;99.90;;;;;;5009108;28;20135;-82
2023/04/19 05:15:43;;;;;;;4.97;2.30;;;6.50;99.90;;;;;;5005463;28;20041;-82
2023/04/19 05:18:08;;;;;;;4.97;2.05;;;6.50;99.90;;;;;;5006487;28;20038;-82
2023/04/19 05:20:34;;;;;;;5.10;1.88;;;6.50;99.90;;;;;;5003290;28;20499;-82
2023/04/19 05:23:02;;;;;;;5.05;2.10;;;6.50;99.90;;;;;;5008858;28;20578;-82
2023/04/19 05:25:28;;;;;;;4.78;1.90;;;6.50;99.90;;;;;;5005479;28;20042;-82
2023/04/19 05:27:53;;;;;;;3.70;1.70;;;6.60;99.90;;;;;;5037325;28;20038;-82
2023/04/19 05:30:19;;;;;;;3.58;1.63;;;6.60;99.90;;;;;;5004132;28;20424;-82
2023/04/19 05:32:45;;;;;;;4.63;1.70;;;6.60;99.90;;;;;;5018351;28;20048;-82
2023/04/19 05:35:11;;;;;;;7.80;2.28;;;6.60;99.90;;;;;;4994574;28;20122;-82
2023/04/19 05:37:38;;;;;;;4.82;1.60;;;6.60;99.90;;;;;;5006113;28;20037;-81
2023/04/19 05:40:04;;;;;;;4.43;1.75;;;6.60;99.90;;;;;;5002442;28;20034;-82
2023/04/19 05:42:30;;;;;;;4.43;1.98;;;6.70;99.90;;;;;;5016401;28;20042;-82
2023/04/19 05:44:56;;;;;;;3.83;1.70;;;6.70;99.90;;;;;;4999880;28;20409;-82
2023/04/19 05:47:22;;;;;;;4.20;1.50;;;6.70;99.90;;;;;;4999293;28;20050;-81
2023/04/19 05:49:47;;;;;;;4.13;1.60;;;6.70;99.90;;;;;;5003643;28;20125;-82
2023/04/19 05:52:13;;;;;;;5.57;1.45;;;6.70;99.90;;;;;;5007281;28;20034;-81
2023/04/19 05:54:39;;;;;;;3.67;1.63;;;6.70;99.90;;;;;;5003445;28;20068;-82
2023/04/19 05:57:04;;;;;;;4.20;1.60;;;6.80;99.90;;;;;;5001157;28;20060;-82
2023/04/19 05:59:30;;;;;;;6.35;1.90;;;6.80;99.80;;;;;;5021037;28;20052;-82
2023/04/19 06:01:56;;;;;;;2.92;1.50;;;6.80;99.60;;;;;;5033522;28;20072;-82
2023/04/19 06:04:21;;;;;;;7.97;1.67;;;6.80;99.40;;;;;;5004464;28;20053;-82
2023/04/19 06:06:47;;;;;;;2.95;1.75;;;6.80;99.10;;;;;;5018718;28;20052;-82
2023/04/19 06:09:13;;;;;;;3.65;1.75;;;6.80;98.70;;;;;;5005781;28;20042;-82
2023/04/19 06:11:40;;;;;;;4.30;1.80;;;6.80;99.40;;;;;;5009211;28;20479;-82
2023/04/19 06:14:05;;;;;;;3.58;1.60;;;6.80;99.10;;;;;;5028016;28;20041;-82
2023/04/19 06:16:31;;;;;;;5.13;1.88;;;6.90;99.20;;;;;;4998219;28;20403;-82
2023/04/19 06:18:57;;;;;;;3.72;1.45;;;6.90;98.90;;;;;;5003453;28;20083;-81
2023/04/19 06:21:22;;;;;;;2.75;1.40;;;6.90;98.70;;;;;;5024393;28;20030;-82
2023/04/19 06:23:48;;;;;;;2.92;1.48;;;6.90;98.80;;;;;;5006904;28;20554;-82
2023/04/19 06:26:14;;;;;;;5.70;2.45;;;6.90;98.40;;;;;;5011029;28;20392;-82
2023/04/19 06:28:39;;;;;;;4.40;1.45;;;7.00;98.30;;;;;;5010862;28;20038;-82
2023/04/19 06:31:05;;;;;;;2.65;1.00;;;7.00;98.40;;;;;;5010811;28;20046;-82
2023/04/19 06:33:31;;;;;;;2.90;1.33;;;7.00;98.40;;;;;;5009587;28;20388;-82
2023/04/19 06:35:56;;;;;;;3.85;1.40;;;7.10;98.10;;;;;;5028536;28;20407;-82
2023/04/19 06:38:22;;;;;;;4.63;1.50;;;7.10;97.70;;;;;;5012795;28;20050;-82
2023/04/19 06:40:48;;;;;;;3.20;1.40;;;7.10;98.00;;;;;;5012299;28;20042;-82
2023/04/19 06:43:13;;;;;;;3.10;1.55;;;7.20;97.80;;;;;;5013311;28;20041;-82
2023/04/19 06:45:39;;;;;;;3.03;1.52;;;7.20;97.90;;;;;;5031961;28;20042;-82
2023/04/19 06:48:05;;;;;;;4.95;1.40;;;7.30;97.90;;;;;;5006928;28;20041;-82
2023/04/19 06:50:30;;;;;;;3.88;1.52;;;7.30;97.90;;;;;;5012867;28;20116;-82
2023/04/19 06:52:56;;;;;;;2.53;1.33;;;7.40;97.60;;;;;;5010341;28;20034;-82
2023/04/19 06:55:22;;;;;;;3.38;1.50;;;7.50;97.20;;;;;;5009754;28;20172;-82
2023/04/19 06:57:48;;;;;;;2.42;1.02;;;7.50;97.40;;;;;;4996532;28;20403;-82
2023/04/19 07:00:14;;;;;;;4.25;1.52;;;7.60;97.20;;;;;;4992568;28;20038;-82
2023/04/19 07:02:39;;;;;;;4.03;1.27;;;7.70;96.80;;;;;;5037674;28;20550;-82
2023/04/19 07:05:07;;;;;;;2.40;1.10;;;7.70;96.50;;;;;;4996437;28;20096;-82
2023/04/19 07:07:33;;;;;;;3.13;1.10;;;7.70;96.40;;;;;;5001443;28;20045;-82
2023/04/19 07:09:58;;;;;;;5.10;1.20;;;7.80;96.50;;;;;;5010391;28;20345;-82
2023/04/19 07:12:24;;;;;;;3.50;1.13;;;7.80;96.10;;;;;;5006205;28;20447;-82
2023/04/19 07:14:55;;;;;;;2.25;1.25;;;7.80;96.10;;;;;;5007800;28;20046;-82
2023/04/19 07:17:21;;;;;;;5.05;1.55;;;7.90;95.90;;;;;;4998706;28;20052;-82
2023/04/19 07:19:48;;;;;;;3.80;1.25;;;7.90;95.90;;;;;;5004727;28;20026;-82
2023/04/19 07:22:14;;;;;;;3.25;1.33;;;7.90;96.20;;;;;;5003139;28;20120;-82
2023/04/19 07:24:40;;;;;;;3.17;1.30;;;8.00;96.30;;;;;;5004236;28;20476;-82
2023/04/19 07:27:06;;;;;;;2.13;1.02;;;8.00;96.50;;;;;;5004935;28;20045;-82
2023/04/19 07:29:34;;;;;;;2.30;0.88;;;8.00;96.10;;;;;;5001550;28;20034;-82
2023/04/19 07:32:00;;;;;;;2.40;0.98;;;8.10;95.40;;;;;;5003701;28;20038;-82
2023/04/19 07:34:26;;;;;;;2.33;0.90;;;8.10;94.90;;;;;;5002038;28;20038;-82
2023/04/19 07:36:52;;;;;;;3.95;1.10;;;8.20;95.40;;;;;;5011072;28;20046;-82
2023/04/19 07:39:17;;;;;;;1.77;0.90;;;8.20;95.40;;;;;;5005925;28;20041;-82
2023/04/19 07:41:44;;;;;;;2.15;1.00;;;8.30;95.40;;;;;;5010690;28;20088;-82
2023/04/19 07:44:10;;;;;;;1.98;0.90;;;8.30;94.80;;;;;;5001507;28;20077;-82
2023/04/19 07:46:36;;;;;;;2.80;0.70;;;8.40;95.20;;;;;;5042608;28;20054;-83
2023/04/19 07:49:02;;;;;;;2.05;1.15;;;8.40;94.80;;;;;;5011248;28;20507;-82
2023/04/19 07:51:27;;;;;;;2.13;0.90;;;8.50;94.90;;;;;;5004934;28;20551;-82
2023/04/19 07:53:53;;;;;;;2.00;1.00;;;8.50;94.90;;;;;;5003642;28;20044;-82
2023/04/19 07:56:21;;;;;;;4.53;1.05;;;8.60;94.40;;;;;;5007406;28;20048;-82
2023/04/19 07:58:46;;;;;;;2.80;1.02;;;8.50;93.70;;;;;;5003456;28;20125;-82
2023/04/19 08:01:12;;;;;;;1.77;0.90;;;8.60;93.80;;;;;;4996671;28;20076;-82
2023/04/19 08:03:38;;;;;;;3.75;1.08;;;8.60;93.30;;;;;;5017875;28;20042;-82
2023/04/19 08:06:06;;;;;;;2.22;1.40;;;8.70;91.70;;;;;;4994781;28;20045;-81
2023/04/19 08:08:31;;;;;;;3.05;0.95;;;8.80;92.20;;;;;;5005750;28;20038;-83
2023/04/19 08:10:57;;;;;;;2.45;1.20;;;8.80;92.30;;;;;;5004963;28;20040;-83
2023/04/19 08:13:23;;;;;;;2.55;1.00;;;8.80;92.30;;;;;;5002982;28;20115;-82
2023/04/19 08:15:48;;;;;;;2.42;0.80;;;8.90;92.60;;;;;;4996419;28;20412;-83
2023/04/19 08:18:14;;;;;;;2.25;1.00;;;8.90;92.10;;;;;;4999287;28;20041;-83
2023/04/19 08:20:43;;;;;;;3.45;1.23;;;8.90;91.30;;;;;;4997161;28;20030;-83
2023/04/19 08:23:10;;;;;;;2.35;0.90;;;9.00;92.20;;;;;;5000930;28;20056;-83
2023/04/19 08:25:35;;;;;;;2.58;1.02;;;9.00;91.80;;;;;;5003434;28;20117;-83
2023/04/19 08:28:01;;;;;;;2.72;1.05;;;9.00;91.70;;;;;;5020473;28;20130;-83
2023/04/19 08:30:27;;;;;;;3.25;1.27;;;9.20;90.60;;;;;;5005228;28;20030;-83
2023/04/19 08:32:52;;;;;;;3.08;1.15;;;9.20;90.00;;;;;;5001352;28;20599;-83
2023/04/19 08:35:19;;;;;;;1.58;0.80;;;9.20;87.90;;;;;;4994999;28;20109;-83
2023/04/19 08:37:45;;;;;;;2.53;0.95;;;9.20;89.70;;;;;;5037273;28;20116;-84
2023/04/19 08:40:10;;;;;;;3.42;1.38;;;9.30;88.60;;;;;;5003851;28;20563;-83
2023/04/19 08:42:36;;;;;;;3.80;1.33;;;9.30;86.70;;;;;;5003626;28;20571;-83
2023/04/19 08:45:05;;;;;;;2.50;0.90;;;9.30;84.40;;;;;;5005663;28;20041;-83
2023/04/19 08:47:35;;;;;;;3.17;1.05;;;9.40;84.20;;;;;;5002215;28;20065;-83
2023/04/19 08:50:02;;;;;;;3.05;1.20;;;9.40;83.90;;;;;;5000140;28;20057;-83
2023/04/19 08:52:32;;;;;;;2.65;0.93;;;9.40;84.20;;;;;;5008409;28;20077;-83
2023/04/19 08:54:59;;;;;;;2.20;0.80;;;9.50;83.60;;;;;;5028828;28;20045;-83
2023/04/19 08:57:25;;;;;;;1.95;1.00;;;9.60;84.90;;;;;;5001811;28;20042;-83
2023/04/19 08:59:54;;;;;;;1.50;0.60;;;9.60;83.80;;;;;;5013052;28;20096;-83
2023/04/19 09:02:21;;;;;;;1.70;0.68;;;9.60;82.70;;;;;;5033945;28;20040;-83
2023/04/19 09:04:46;;;;;;;1.92;0.90;;;9.70;84.20;;;;;;4997423;28;20069;-83
2023/04/19 09:07:32;;;;;;;2.63;1.05;;;9.70;82.80;;;;;;5000618;28;20076;-83
2023/04/19 09:10:11;;;;;;;2.83;0.98;;;9.70;75.60;;;;;;5007082;28;20065;-83
2023/04/19 09:12:38;;;;;;;2.67;0.80;;;9.70;78.30;;;;;;5001410;28;20296;-83
2023/04/19 09:15:07;;;;;;;1.58;0.77;;;9.70;80.70;;;;;;5010798;28;20038;-83
2023/04/19 09:17:38;;;;;;;2.92;0.90;;;9.80;81.90;;;;;;5000288;28;20132;-83
2023/04/19 09:20:05;;;;;;;2.20;0.73;;;9.80;81.70;;;;;;4995157;28;20038;-83
2023/04/19 09:22:32;;;;;;;1.73;0.90;;;9.80;81.70;;;;;;4994090;28;20052;-83
2023/04/19 09:24:59;;;;;;;1.90;0.93;;;9.90;75.90;;;;;;5001737;28;20089;-83
2023/04/19 09:27:29;;;;;;;1.98;0.82;;;9.90;75.90;;;;;;4990640;28;20042;-82
2023/04/19 09:30:00;;;;;;;2.35;0.80;;;10.00;75.40;;;;;;4997618;28;20070;-82
2023/04/19 09:32:27;;;;;;;3.17;0.82;;;10.00;73.00;;;;;;4997344;28;20038;-82
2023/04/19 09:34:57;;;;;;;2.40;0.88;;;10.10;72.90;;;;;;5002928;28;20038;-83
2023/04/19 09:37:25;;;;;;;1.60;0.63;;;10.10;71.80;;;;;;5021680;28;20061;-83
2023/04/19 09:39:51;;;;;;;2.63;1.08;;;10.20;70.20;;;;;;4991923;28;20373;-83
2023/04/19 09:42:18;;;;;;;1.70;0.90;;;10.20;71.30;;;;;;4997669;28;20585;-83
2023/04/19 09:45:00;;;;;;;4.32;0.98;;;10.30;70.90;;;;;;5006743;28;20100;-83
2023/04/19 09:47:28;;;;;;;2.17;1.00;;;10.30;67.50;;;;;;4992516;28;20033;-84
2023/04/19 09:50:10;;;;;;;2.45;1.17;;;10.40;69.20;;;;;;5022427;28;20079;-83
2023/04/19 09:52:36;;;;;;;2.00;0.88;;;10.40;66.90;;;;;;5001604;28;20038;-83
2023/04/19 09:55:04;;;;;;;4.72;0.90;;;10.40;69.10;;;;;;5029261;28;20108;-83
2023/04/19 09:57:31;;;;;;;1.92;0.63;;;10.50;69.50;;;;;;4999557;28;20046;-83
2023/04/19 09:59:58;;;;;;;2.53;0.80;;;10.50;70.40;;;;;;5028627;28;20038;-84
2023/04/19 10:02:28;;;;;;;1.10;0.45;;;10.60;65.20;;;;;;5032203;28;20074;-84
2023/04/19 10:04:55;;;;;;;1.98;0.80;;;10.60;66.30;;;;;;5005706;28;20180;-84
2023/04/19 10:07:21;;;;;;;1.98;0.90;;;10.70;64.80;;;;;;5035832;28;20042;-83
2023/04/19 10:09:50;;;;;;;2.20;0.88;;;10.70;64.70;;;;;;5007578;28;20042;-84
2023/04/19 10:12:16;;;;;;;1.42;0.90;;;10.70;65.20;;;;;;5016421;28;20114;-84
2023/04/19 10:14:42;;;;;;;1.48;0.82;;;10.80;65.40;;;;;;5009553;28;20081;-84
2023/04/19 10:17:08;;;;;;;1.42;0.75;;;10.80;65.20;;;;;;5023882;28;20077;-84
2023/04/19 10:19:36;;;;;;;1.45;0.57;;;10.90;65.00;;;;;;5009196;28;20072;-83
2023/04/19 10:22:06;;;;;;;1.17;0.52;;;10.90;65.50;;;;;;5012968;28;20042;-84
2023/04/19 10:24:32;;;;;;;1.83;0.90;;;11.00;62.70;;;;;;5005864;28;20487;-84
2023/04/19 10:27:10;;;;;;;2.72;0.60;;;11.10;61.80;;;;;;5000093;28;20107;-83
2023/04/19 10:29:54;;;;;;;1.48;0.68;;;11.10;60.80;;;;;;5032319;28;20092;-83
2023/04/19 10:32:20;;;;;;;1.40;0.73;;;11.20;56.10;;;;;;5029056;28;20476;-83
2023/04/19 10:34:46;;;;;;;1.60;0.70;;;11.20;58.40;;;;;;5007979;28;20065;-83
2023/04/19 10:37:16;;;;;;;2.88;0.77;;;11.20;58.30;;;;;;5003316;28;20044;-83
2023/04/19 10:39:43;;;;;;;1.70;0.80;;;11.20;59.00;;;;;;5013358;28;20155;-83
2023/04/19 10:42:09;;;;;;;2.45;0.77;;;11.20;58.40;;;;;;5033767;28;20155;-83
2023/04/19 10:44:35;;;;;;;1.95;0.85;;;11.20;56.90;;;;;;5013287;28;20403;-83
2023/04/19 10:47:00;;;;;;;1.70;0.63;;;11.30;57.50;;;;;;5006039;28;20054;-83
2023/04/19 10:49:30;;;;;;;1.48;0.60;;;11.30;57.50;;;;;;5006151;28;20040;-83
2023/04/19 10:51:56;;;;;;;0.68;0.40;;;11.40;59.00;;;;;;5018497;28;20061;-83
2023/04/19 10:54:37;;;;;;;1.85;0.55;;;11.30;60.00;;;;;;5005258;28;20418;-82
2023/04/19 10:57:04;;;;;;;1.88;0.65;;;11.40;59.10;;;;;;5005715;28;20445;-83
2023/04/19 10:59:34;;;;;;;0.85;0.45;;;11.50;58.90;;;;;;5007935;28;20134;-82
2023/04/19 11:02:02;;;;;;;2.00;0.50;;;11.50;56.90;;;;;;5003751;28;20046;-82
2023/04/19 11:04:31;;;;;;;1.38;0.60;;;11.50;59.10;;;;;;5003259;28;20092;-82
2023/04/19 11:07:00;;;;;;;2.72;0.52;;;11.60;57.80;;;;;;5000905;28;20040;-82
2023/04/19 11:09:40;;;;;;;0.65;0.40;;;11.50;56.50;;;;;;4998045;28;20041;-82
2023/04/19 11:12:11;;;;;;;2.10;0.65;;;11.60;56.00;;;;;;5031052;28;20093;-82
2023/04/19 11:14:41;;;;;;;1.90;0.75;;;11.60;54.90;;;;;;4998761;28;20034;-82
2023/04/19 11:17:17;;;;;;;0.88;0.45;;;11.60;54.70;;;;;;5005282;28;20034;-82
2023/04/19 11:19:56;;;;;;;1.63;0.75;;;11.60;55.20;;;;;;5037340;28;20045;-82
2023/04/19 11:22:39;;;;;;;1.48;0.70;;;11.60;54.90;;;;;;5045470;28;20310;-82
2023/04/19 11:25:04;;;;;;;1.42;0.70;;;11.60;54.30;;;;;;5007516;28;20064;-82
2023/04/19 11:27:31;;;;;;;1.38;0.70;;;11.60;54.00;;;;;;5000352;28;20088;-81
2023/04/19 11:30:11;;;;;;;1.17;0.77;;;11.60;54.10;;;;;;4984229;28;20038;-82
2023/04/19 11:32:44;;;;;;;1.50;0.70;;;11.60;53.90;;;;;;5003954;28;20041;-82
2023/04/19 11:35:10;;;;;;;7.72;0.80;;;11.70;55.10;;;;;;5026720;28;20037;-82
2023/04/19 11:37:37;;;;;;;3.05;1.25;;;11.70;56.10;;;;;;5010398;28;20030;-82
2023/04/19 11:40:05;;;;;;;2.10;0.70;;;11.70;56.50;;;;;;5010648;28;20116;-82
2023/04/19 11:42:31;;;;;;;1.70;0.80;;;11.70;55.90;;;;;;5011521;28;20053;-82
2023/04/19 11:44:58;;;;;;;1.52;0.80;;;11.80;56.80;;;;;;5005313;28;20070;-82
2023/04/19 11:47:27;;;;;;;3.20;0.70;;;11.80;56.20;;;;;;5001997;28;20117;-82
2023/04/19 11:49:57;;;;;;;1.50;0.68;;;11.80;56.70;;;;;;5003428;28;20100;-82
2023/04/19 11:52:25;;;;;;;1.58;0.70;;;11.80;56.10;;;;;;5000025;28;20321;-82
2023/04/19 11:54:53;;;;;;;2.58;0.70;;;11.90;57.20;;;;;;5028324;28;20053;-82
2023/04/19 11:57:27;;;;;;;1.73;0.80;;;11.80;56.90;;;;;;4997825;28;20144;-82
2023/04/19 12:00:10;;;;;;;1.58;0.85;;;11.90;56.90;;;;;;5031458;28;20039;-82
2023/04/19 12:02:38;;;;;;;2.60;0.77;;;11.90;57.20;;;;;;5004612;28;20049;-82
2023/04/19 12:05:14;;;;;;;1.52;0.80;;;11.90;57.80;;;;;;5028374;28;20538;-82
2023/04/19 12:07:58;;;;;;;;;;;12.00;56.90;;;;;;5007084;28;20103;-82
2023/04/19 12:10:24;;;;;;;2.25;1.10;;;11.90;54.70;;;;;;5007487;28;19925;-82
2023/04/19 12:12:50;;;;;;;6.53;1.10;;;12.00;57.90;;;;;;5017885;28;20103;-82
2023/04/19 12:15:16;;;;;;;4.30;1.35;;;12.00;58.30;;;;;;5027775;28;20183;-81
2023/04/19 12:18:00;;;;;;;2.08;0.88;;;12.00;58.50;;;;;;5002861;28;20050;-82
2023/04/19 12:20:35;;;;;;;2.53;0.80;;;12.10;54.10;;;;;;4995693;28;20033;-82
2023/04/19 12:23:01;;;;;;;2.65;0.80;;;12.10;56.70;;;;;;5001538;28;20124;-82
2023/04/19 12:25:32;;;;;;;2.25;0.98;;;12.00;57.30;;;;;;5039310;28;20157;-82
2023/04/19 12:27:59;;;;;;;2.30;1.10;;;12.00;55.30;;;;;;5015748;28;20038;-82
2023/04/19 12:30:25;;;;;;;4.03;1.25;;;12.00;57.00;;;;;;5006562;28;20038;-82
2023/04/19 12:32:54;;;;;;;2.70;1.30;;;12.00;56.60;;;;;;5020534;28;20113;-82
2023/04/19 12:35:24;;;;;;;2.50;1.30;;;12.00;57.40;;;;;;5004016;28;20885;-82
2023/04/19 12:37:51;;;;;;;3.08;1.55;;;12.00;57.50;;;;;;5000399;28;20513;-82
2023/04/19 12:40:17;;;;;;;2.30;0.98;;;12.00;57.40;;;;;;5029555;28;20034;-83
2023/04/19 12:42:43;;;;;;;2.38;1.10;;;12.10;58.40;;;;;;5008870;28;20487;-82
2023/04/19 12:45:10;;;;;;;3.28;1.33;;;12.00;58.00;;;;;;5006395;28;20056;-82
2023/04/19 12:47:36;;;;;;;3.22;1.48;;;12.00;58.20;;;;;;4992443;28;20045;-82
2023/04/19 12:50:01;;;;;;;2.95;1.48;;;12.00;58.70;;;;;;4996453;28;20242;-82
2023/04/19 12:52:27;;;;;;;2.95;1.08;;;12.00;57.10;;;;;;5004666;28;20045;-82
2023/04/19 12:54:53;;;;;;;2.13;1.10;;;12.10;57.50;;;;;;5001829;28;20045;-82